sensor_id;sensor_type;location;lat;lon;timestamp;temperature;humidity
16823;DHT22;8528;49.976;11.858;2022-09-03T00:00:11;6.80;99.90
16823;DHT22;8528;49.976;11.858;2022-09-03T00:02:49;6.80;99.90
16823;DHT22;8528;49.976;11.858;2022-09-03T00:05:23;6.80;99.90
16823;DHT22;8528;49.976;11.858;2022-09-03T00:13:41;6.70;99.90
16823;DHT22;8528;49.976;11.858;2022-09-03T00:16:42;6.60;99.90
16823;DHT22;8528;49.976;11.858;2022-09-03T00:19:09;6.60;99.90
16823;DHT22;8528;49.976;11.858;2022-09-03T00:22:03;6.50;99.90
16823;DHT22;8528;49.976;11.858;2022-09-03T00:24:35;6.50;99.90
16823;DHT22;8528;49.976;11.858;2022-09-03T00:27:17;6.50;99.90
16823;DHT22;8528;49.976;11.858;2022-09-03T00:29:51;6.40;99.90
16823;DHT22;8528;49.976;11.858;2022-09-03T00:32:25;6.40;99.90
16823;DHT22;8528;49.976;11.858;2022-09-03T00:34:59;6.30;99.90
16823;DHT22;8528;49.976;11.858;2022-09-03T00:37:36;6.40;99.90
16823;DHT22;8528;49.976;11.858;2022-09-03T00:40:05;6.40;99.90
16823;DHT22;8528;49.976;11.858;2022-09-03T00:42:56;6.40;99.90
16823;DHT22;8528;49.976;11.858;2022-09-03T00:48:25;6.20;99.90
16823;DHT22;8528;49.976;11.858;2022-09-03T00:51:15;6.20;99.90
16823;DHT22;8528;49.976;11.858;2022-09-03T00:54:03;6.10;99.90
16823;DHT22;8528;49.976;11.858;2022-09-03T00:59:43;6.10;99.90
16823;DHT22;8528;49.976;11.858;2022-09-03T01:13:53;5.90;99.90
16823;DHT22;8528;49.976;11.858;2022-09-03T01:16:37;5.90;99.90
16823;DHT22;8528;49.976;11.858;2022-09-03T01:30:44;5.90;99.90
16823;DHT22;8528;49.976;11.858;2022-09-03T01:33:34;5.90;99.90
16823;DHT22;8528;49.976;11.858;2022-09-03T01:39:06;6.00;99.90
16823;DHT22;8528;49.976;11.858;2022-09-03T01:42:15;6.10;99.90
16823;DHT22;8528;49.976;11.858;2022-09-03T01:50:44;6.10;99.90
16823;DHT22;8528;49.976;11.858;2022-09-03T01:59:19;5.90;99.90
16823;DHT22;8528;49.976;11.858;2022-09-03T02:02:12;5.80;99.90
16823;DHT22;8528;49.976;11.858;2022-09-03T02:05:11;5.80;99.90
16823;DHT22;8528;49.976;11.858;2022-09-03T02:07:44;5.70;99.90
16823;DHT22;8528;49.976;11.858;2022-09-03T02:10:24;5.70;99.90
16823;DHT22;8528;49.976;11.858;2022-09-03T02:13:08;5.70;99.90
16823;DHT22;8528;49.976;11.858;2022-09-03T02:15:38;5.70;99.90
16823;DHT22;8528;49.976;11.858;2022-09-03T02:18:24;5.70;99.90
16823;DHT22;8528;49.976;11.858;2022-09-03T02:20:59;5.60;99.90
16823;DHT22;8528;49.976;11.858;2022-09-03T02:23:30;5.60;99.90
16823;DHT22;8528;49.976;11.858;2022-09-03T02:26:03;5.60;99.90
16823;DHT22;8528;49.976;11.858;2022-09-03T02:28:31;5.60;99.90
16823;DHT22;8528;49.976;11.858;2022-09-03T02:31:11;5.60;99.90
16823;DHT22;8528;49.976;11.858;2022-09-03T02:33:40;5.60;99.90
16823;DHT22;8528;49.976;11.858;2022-09-03T02:36:10;5.60;99.90
16823;DHT22;8528;49.976;11.858;2022-09-03T02:38:39;5.60;99.90
16823;DHT22;8528;49.976;11.858;2022-09-03T02:41:09;5.60;99.90
16823;DHT22;8528;49.976;11.858;2022-09-03T02:43:50;5.60;99.90
16823;DHT22;8528;49.976;11.858;2022-09-03T02:46:22;5.60;99.90
16823;DHT22;8528;49.976;11.858;2022-09-03T02:48:53;5.60;99.90
16823;DHT22;8528;49.976;11.858;2022-09-03T02:51:23;5.60;99.90
16823;DHT22;8528;49.976;11.858;2022-09-03T02:53:52;5.50;99.90
16823;DHT22;8528;49.976;11.858;2022-09-03T02:56:19;5.40;99.90
16823;DHT22;8528;49.976;11.858;2022-09-03T02:58:46;5.40;99.90
16823;DHT22;8528;49.976;11.858;2022-09-03T03:01:13;5.40;99.90
16823;DHT22;8528;49.976;11.858;2022-09-03T03:03:58;5.40;99.90
16823;DHT22;8528;49.976;11.858;2022-09-03T03:06:26;5.40;99.90
16823;DHT22;8528;49.976;11.858;2022-09-03T03:08:55;5.40;99.90
16823;DHT22;8528;49.976;11.858;2022-09-03T03:11:26;5.50;99.90
16823;DHT22;8528;49.976;11.858;2022-09-03T03:13:56;5.60;99.90
16823;DHT22;8528;49.976;11.858;2022-09-03T03:16:23;5.60;99.90
16823;DHT22;8528;49.976;11.858;2022-09-03T03:18:50;5.50;99.90
16823;DHT22;8528;49.976;11.858;2022-09-03T03:21:21;5.40;99.90
16823;DHT22;8528;49.976;11.858;2022-09-03T03:23:48;5.40;99.90
16823;DHT22;8528;49.976;11.858;2022-09-03T03:26:18;5.40;99.90
16823;DHT22;8528;49.976;11.858;2022-09-03T03:28:49;5.30;99.90
16823;DHT22;8528;49.976;11.858;2022-09-03T03:31:19;5.30;99.90
16823;DHT22;8528;49.976;11.858;2022-09-03T03:33:51;5.30;99.90
16823;DHT22;8528;49.976;11.858;2022-09-03T03:36:19;5.40;99.90
16823;DHT22;8528;49.976;11.858;2022-09-03T03:38:47;5.50;99.90
16823;DHT22;8528;49.976;11.858;2022-09-03T03:41:19;5.50;99.90
16823;DHT22;8528;49.976;11.858;2022-09-03T03:43:57;5.60;99.90
16823;DHT22;8528;49.976;11.858;2022-09-03T03:46:29;5.60;99.90
16823;DHT22;8528;49.976;11.858;2022-09-03T03:49:02;5.70;99.90
16823;DHT22;8528;49.976;11.858;2022-09-03T03:51:29;5.60;99.90
16823;DHT22;8528;49.976;11.858;2022-09-03T03:53:56;5.70;99.90
16823;DHT22;8528;49.976;11.858;2022-09-03T03:56:28;5.70;99.90
16823;DHT22;8528;49.976;11.858;2022-09-03T03:58:58;5.70;99.90
16823;DHT22;8528;49.976;11.858;2022-09-03T04:01:27;5.70;99.90
16823;DHT22;8528;49.976;11.858;2022-09-03T04:03:55;5.70;99.90
16823;DHT22;8528;49.976;11.858;2022-09-03T04:06:23;5.60;99.90
16823;DHT22;8528;49.976;11.858;2022-09-03T04:08:50;5.50;99.90
16823;DHT22;8528;49.976;11.858;2022-09-03T04:11:26;5.60;99.90
16823;DHT22;8528;49.976;11.858;2022-09-03T04:13:53;5.60;99.90
16823;DHT22;8528;49.976;11.858;2022-09-03T04:16:25;5.70;99.90
16823;DHT22;8528;49.976;11.858;2022-09-03T04:18:53;5.70;99.90
16823;DHT22;8528;49.976;11.858;2022-09-03T04:21:30;5.80;99.90
16823;DHT22;8528;49.976;11.858;2022-09-03T04:24:02;5.80;99.90
16823;DHT22;8528;49.976;11.858;2022-09-03T04:26:33;5.80;99.90
16823;DHT22;8528;49.976;11.858;2022-09-03T04:29:03;5.90;99.90
16823;DHT22;8528;49.976;11.858;2022-09-03T04:31:30;5.90;99.90
16823;DHT22;8528;49.976;11.858;2022-09-03T04:33:58;5.90;99.90
16823;DHT22;8528;49.976;11.858;2022-09-03T04:36:27;5.90;99.90
16823;DHT22;8528;49.976;11.858;2022-09-03T04:38:56;5.90;99.90
16823;DHT22;8528;49.976;11.858;2022-09-03T04:41:26;6.00;99.90
16823;DHT22;8528;49.976;11.858;2022-09-03T04:43:55;6.00;99.90
16823;DHT22;8528;49.976;11.858;2022-09-03T04:46:24;5.90;99.90
16823;DHT22;8528;49.976;11.858;2022-09-03T04:48:53;5.90;99.90
16823;DHT22;8528;49.976;11.858;2022-09-03T04:51:29;5.90;99.90
16823;DHT22;8528;49.976;11.858;2022-09-03T04:53:59;5.90;99.90
16823;DHT22;8528;49.976;11.858;2022-09-03T04:56:34;6.00;99.90
16823;DHT22;8528;49.976;11.858;2022-09-03T04:59:04;6.10;99.90
16823;DHT22;8528;49.976;11.858;2022-09-03T05:01:38;6.20;99.90
16823;DHT22;8528;49.976;11.858;2022-09-03T05:04:06;6.30;99.90
16823;DHT22;8528;49.976;11.858;2022-09-03T05:06:35;6.40;99.90
16823;DHT22;8528;49.976;11.858;2022-09-03T05:09:03;6.60;99.90
16823;DHT22;8528;49.976;11.858;2022-09-03T05:11:32;6.70;99.90
16823;DHT22;8528;49.976;11.858;2022-09-03T05:13:59;6.80;99.90
16823;DHT22;8528;49.976;11.858;2022-09-03T05:16:27;7.00;99.90
16823;DHT22;8528;49.976;11.858;2022-09-03T05:18:57;7.00;99.90
16823;DHT22;8528;49.976;11.858;2022-09-03T05:21:28;7.20;99.90
16823;DHT22;8528;49.976;11.858;2022-09-03T05:23:55;7.20;99.90
16823;DHT22;8528;49.976;11.858;2022-09-03T05:26:38;7.30;99.90
16823;DHT22;8528;49.976;11.858;2022-09-03T05:29:06;7.40;99.90
16823;DHT22;8528;49.976;11.858;2022-09-03T05:31:35;7.50;99.90
16823;DHT22;8528;49.976;11.858;2022-09-03T05:34:04;7.60;99.90
16823;DHT22;8528;49.976;11.858;2022-09-03T05:36:35;7.70;99.90
16823;DHT22;8528;49.976;11.858;2022-09-03T05:39:08;7.80;99.90
16823;DHT22;8528;49.976;11.858;2022-09-03T05:41:39;8.00;99.90
16823;DHT22;8528;49.976;11.858;2022-09-03T05:44:08;8.10;99.90
16823;DHT22;8528;49.976;11.858;2022-09-03T05:46:35;8.20;99.90
16823;DHT22;8528;49.976;11.858;2022-09-03T05:49:05;8.30;99.90
16823;DHT22;8528;49.976;11.858;2022-09-03T05:51:35;8.40;99.90
16823;DHT22;8528;49.976;11.858;2022-09-03T05:54:09;8.50;99.90
16823;DHT22;8528;49.976;11.858;2022-09-03T05:56:37;8.60;99.90
16823;DHT22;8528;49.976;11.858;2022-09-03T05:59:09;8.80;99.90
16823;DHT22;8528;49.976;11.858;2022-09-03T06:01:45;9.00;99.90
16823;DHT22;8528;49.976;11.858;2022-09-03T06:04:20;9.10;99.90
16823;DHT22;8528;49.976;11.858;2022-09-03T06:06:47;9.20;99.90
16823;DHT22;8528;49.976;11.858;2022-09-03T06:09:19;9.40;99.90
16823;DHT22;8528;49.976;11.858;2022-09-03T06:11:50;9.50;99.90
16823;DHT22;8528;49.976;11.858;2022-09-03T06:14:19;9.70;99.90
16823;DHT22;8528;49.976;11.858;2022-09-03T06:16:48;9.80;99.90
16823;DHT22;8528;49.976;11.858;2022-09-03T06:19:18;9.90;99.90
16823;DHT22;8528;49.976;11.858;2022-09-03T06:21:48;10.10;99.90
16823;DHT22;8528;49.976;11.858;2022-09-03T06:24:17;10.20;99.90
16823;DHT22;8528;49.976;11.858;2022-09-03T06:26:48;10.40;99.90
16823;DHT22;8528;49.976;11.858;2022-09-03T06:29:16;10.50;99.90
16823;DHT22;8528;49.976;11.858;2022-09-03T06:31:45;10.70;99.90
16823;DHT22;8528;49.976;11.858;2022-09-03T06:34:14;11.00;99.90
16823;DHT22;8528;49.976;11.858;2022-09-03T06:36:47;11.20;99.90
16823;DHT22;8528;49.976;11.858;2022-09-03T06:39:17;11.50;99.90
16823;DHT22;8528;49.976;11.858;2022-09-03T06:41:48;11.60;99.90
16823;DHT22;8528;49.976;11.858;2022-09-03T06:44:26;11.90;99.90
16823;DHT22;8528;49.976;11.858;2022-09-03T06:46:53;12.20;99.90
16823;DHT22;8528;49.976;11.858;2022-09-03T06:49:20;12.30;99.90
16823;DHT22;8528;49.976;11.858;2022-09-03T06:51:53;12.30;99.90
16823;DHT22;8528;49.976;11.858;2022-09-03T06:54:20;12.40;99.90
16823;DHT22;8528;49.976;11.858;2022-09-03T06:56:48;12.50;99.90
16823;DHT22;8528;49.976;11.858;2022-09-03T06:59:17;12.70;99.90
16823;DHT22;8528;49.976;11.858;2022-09-03T07:01:45;12.80;99.90
16823;DHT22;8528;49.976;11.858;2022-09-03T07:04:13;12.80;99.90
16823;DHT22;8528;49.976;11.858;2022-09-03T07:06:42;12.90;99.90
16823;DHT22;8528;49.976;11.858;2022-09-03T07:09:11;12.90;99.90
16823;DHT22;8528;49.976;11.858;2022-09-03T07:11:39;12.80;99.90
16823;DHT22;8528;49.976;11.858;2022-09-03T07:14:17;13.00;99.90
16823;DHT22;8528;49.976;11.858;2022-09-03T07:16:45;13.20;99.90
16823;DHT22;8528;49.976;11.858;2022-09-03T07:19:14;13.20;99.90
16823;DHT22;8528;49.976;11.858;2022-09-03T07:21:41;13.40;99.90
16823;DHT22;8528;49.976;11.858;2022-09-03T07:24:15;13.60;99.90
16823;DHT22;8528;49.976;11.858;2022-09-03T07:26:45;13.60;99.90
16823;DHT22;8528;49.976;11.858;2022-09-03T07:29:20;13.80;99.90
16823;DHT22;8528;49.976;11.858;2022-09-03T07:31:48;13.90;99.90
16823;DHT22;8528;49.976;11.858;2022-09-03T07:34:18;13.90;99.90
16823;DHT22;8528;49.976;11.858;2022-09-03T07:36:47;13.90;99.90
16823;DHT22;8528;49.976;11.858;2022-09-03T07:39:17;14.00;99.90
16823;DHT22;8528;49.976;11.858;2022-09-03T07:41:45;14.10;99.90
16823;DHT22;8528;49.976;11.858;2022-09-03T07:44:13;14.20;99.90
16823;DHT22;8528;49.976;11.858;2022-09-03T07:46:42;14.40;99.90
16823;DHT22;8528;49.976;11.858;2022-09-03T07:49:12;14.60;99.90
16823;DHT22;8528;49.976;11.858;2022-09-03T07:51:45;14.90;99.90
16823;DHT22;8528;49.976;11.858;2022-09-03T07:54:15;15.10;99.90
16823;DHT22;8528;49.976;11.858;2022-09-03T07:56:46;15.00;99.90
16823;DHT22;8528;49.976;11.858;2022-09-03T07:59:13;14.90;99.90
16823;DHT22;8528;49.976;11.858;2022-09-03T08:01:40;15.00;99.90
16823;DHT22;8528;49.976;11.858;2022-09-03T08:04:07;15.00;99.90
16823;DHT22;8528;49.976;11.858;2022-09-03T08:06:36;15.20;99.90
16823;DHT22;8528;49.976;11.858;2022-09-03T08:09:06;15.40;99.90
16823;DHT22;8528;49.976;11.858;2022-09-03T08:11:42;15.70;99.90
16823;DHT22;8528;49.976;11.858;2022-09-03T08:14:14;16.00;99.90
16823;DHT22;8528;49.976;11.858;2022-09-03T08:16:46;16.30;99.90
16823;DHT22;8528;49.976;11.858;2022-09-03T08:19:14;16.40;99.90
16823;DHT22;8528;49.976;11.858;2022-09-03T08:21:41;16.30;99.90
16823;DHT22;8528;49.976;11.858;2022-09-03T08:24:14;16.10;99.90
16823;DHT22;8528;49.976;11.858;2022-09-03T08:26:42;15.90;99.90
16823;DHT22;8528;49.976;11.858;2022-09-03T08:29:16;15.80;99.90
16823;DHT22;8528;49.976;11.858;2022-09-03T08:31:51;15.90;99.90
16823;DHT22;8528;49.976;11.858;2022-09-03T08:34:21;16.20;99.90
16823;DHT22;8528;49.976;11.858;2022-09-03T08:36:47;16.30;99.90
16823;DHT22;8528;49.976;11.858;2022-09-03T08:39:21;16.50;99.90
16823;DHT22;8528;49.976;11.858;2022-09-03T08:42:01;16.60;99.90
16823;DHT22;8528;49.976;11.858;2022-09-03T08:44:40;16.60;99.90
16823;DHT22;8528;49.976;11.858;2022-09-03T08:50:14;16.60;99.90
16823;DHT22;8528;49.976;11.858;2022-09-03T08:55:30;16.70;99.90
16823;DHT22;8528;49.976;11.858;2022-09-03T09:09:40;16.90;99.90
16823;DHT22;8528;49.976;11.858;2022-09-03T09:12:40;17.10;99.90
16823;DHT22;8528;49.976;11.858;2022-09-03T09:15:29;17.20;99.90
16823;DHT22;8528;49.976;11.858;2022-09-03T09:20:49;17.80;99.90
16823;DHT22;8528;49.976;11.858;2022-09-03T09:23:39;18.00;99.90
16823;DHT22;8528;49.976;11.858;2022-09-03T09:26:21;18.10;99.90
16823;DHT22;8528;49.976;11.858;2022-09-03T09:28:59;18.10;99.90
16823;DHT22;8528;49.976;11.858;2022-09-03T09:31:29;18.00;99.90
16823;DHT22;8528;49.976;11.858;2022-09-03T09:34:06;18.10;99.90
16823;DHT22;8528;49.976;11.858;2022-09-03T09:36:52;18.30;99.90
16823;DHT22;8528;49.976;11.858;2022-09-03T09:39:25;18.50;99.90
16823;DHT22;8528;49.976;11.858;2022-09-03T09:42:21;18.50;99.90
16823;DHT22;8528;49.976;11.858;2022-09-03T09:44:48;18.60;99.90
16823;DHT22;8528;49.976;11.858;2022-09-03T09:47:27;18.80;99.90
16823;DHT22;8528;49.976;11.858;2022-09-03T09:49:59;19.00;99.90
16823;DHT22;8528;49.976;11.858;2022-09-03T09:52:31;19.10;99.90
16823;DHT22;8528;49.976;11.858;2022-09-03T09:55:15;19.00;99.90
16823;DHT22;8528;49.976;11.858;2022-09-03T09:57:43;19.00;99.90
16823;DHT22;8528;49.976;11.858;2022-09-03T10:00:16;19.00;99.90
16823;DHT22;8528;49.976;11.858;2022-09-03T10:02:52;18.80;99.90
16823;DHT22;8528;49.976;11.858;2022-09-03T10:05:30;18.80;99.90
16823;DHT22;8528;49.976;11.858;2022-09-03T10:08:04;19.10;99.90
16823;DHT22;8528;49.976;11.858;2022-09-03T10:10:38;19.20;99.90
16823;DHT22;8528;49.976;11.858;2022-09-03T10:16:03;19.60;98.40
16823;DHT22;8528;49.976;11.858;2022-09-03T10:18:59;19.70;97.90
16823;DHT22;8528;49.976;11.858;2022-09-03T10:21:40;19.50;97.60
16823;DHT22;8528;49.976;11.858;2022-09-03T10:24:34;19.60;99.00
16823;DHT22;8528;49.976;11.858;2022-09-03T10:27:09;19.80;97.40
16823;DHT22;8528;49.976;11.858;2022-09-03T10:29:40;19.90;98.60
16823;DHT22;8528;49.976;11.858;2022-09-03T10:38:25;20.20;95.20
16823;DHT22;8528;49.976;11.858;2022-09-03T10:44:20;20.10;93.70
16823;DHT22;8528;49.976;11.858;2022-09-03T10:55:34;20.70;94.20
16823;DHT22;8528;49.976;11.858;2022-09-03T11:01:23;20.70;91.50
16823;DHT22;8528;49.976;11.858;2022-09-03T11:06:50;20.80;92.90
16823;DHT22;8528;49.976;11.858;2022-09-03T11:09:29;20.90;91.60
16823;DHT22;8528;49.976;11.858;2022-09-03T11:17:39;21.10;90.20
16823;DHT22;8528;49.976;11.858;2022-09-03T11:20:20;21.00;91.00
16823;DHT22;8528;49.976;11.858;2022-09-03T11:22:50;21.30;91.70
16823;DHT22;8528;49.976;11.858;2022-09-03T11:25:29;21.50;90.00
16823;DHT22;8528;49.976;11.858;2022-09-03T11:30:51;22.00;87.80
16823;DHT22;8528;49.976;11.858;2022-09-03T11:33:24;21.90;86.50
16823;DHT22;8528;49.976;11.858;2022-09-03T11:35:57;22.00;86.00
16823;DHT22;8528;49.976;11.858;2022-09-03T11:38:28;21.90;89.40
16823;DHT22;8528;49.976;11.858;2022-09-03T11:41:10;22.00;83.90
16823;DHT22;8528;49.976;11.858;2022-09-03T11:43:42;21.90;84.70
16823;DHT22;8528;49.976;11.858;2022-09-03T11:46:27;21.90;85.70
16823;DHT22;8528;49.976;11.858;2022-09-03T11:49:10;21.90;82.10
16823;DHT22;8528;49.976;11.858;2022-09-03T11:51:39;21.80;82.20
16823;DHT22;8528;49.976;11.858;2022-09-03T11:56:40;22.00;84.80
16823;DHT22;8528;49.976;11.858;2022-09-03T11:59:23;22.20;83.10
16823;DHT22;8528;49.976;11.858;2022-09-03T12:01:59;22.30;83.70
16823;DHT22;8528;49.976;11.858;2022-09-03T12:07:55;22.30;79.60
16823;DHT22;8528;49.976;11.858;2022-09-03T12:19:54;22.40;80.60
16823;DHT22;8528;49.976;11.858;2022-09-03T12:22:35;22.60;77.80
16823;DHT22;8528;49.976;11.858;2022-09-03T12:25:14;22.40;80.90
16823;DHT22;8528;49.976;11.858;2022-09-03T12:27:43;22.60;83.40
16823;DHT22;8528;49.976;11.858;2022-09-03T12:30:21;22.90;80.30
16823;DHT22;8528;49.976;11.858;2022-09-03T12:33:05;23.10;79.20
16823;DHT22;8528;49.976;11.858;2022-09-03T12:35:33;23.00;75.80
16823;DHT22;8528;49.976;11.858;2022-09-03T12:38:26;22.70;78.20
16823;DHT22;8528;49.976;11.858;2022-09-03T12:40:54;22.30;78.50
16823;DHT22;8528;49.976;11.858;2022-09-03T12:43:50;22.20;78.90
16823;DHT22;8528;49.976;11.858;2022-09-03T12:46:22;22.20;78.40
16823;DHT22;8528;49.976;11.858;2022-09-03T12:49:02;22.20;80.40
16823;DHT22;8528;49.976;11.858;2022-09-03T12:57:43;23.10;78.10
16823;DHT22;8528;49.976;11.858;2022-09-03T13:00:15;23.20;77.80
16823;DHT22;8528;49.976;11.858;2022-09-03T13:03:06;23.30;75.80
16823;DHT22;8528;49.976;11.858;2022-09-03T13:05:42;23.40;74.40
16823;DHT22;8528;49.976;11.858;2022-09-03T13:08:31;23.50;74.20
16823;DHT22;8528;49.976;11.858;2022-09-03T13:11:00;23.30;75.90
16823;DHT22;8528;49.976;11.858;2022-09-03T13:13:33;23.40;76.40
16823;DHT22;8528;49.976;11.858;2022-09-03T13:27:36;22.70;77.90
16823;DHT22;8528;49.976;11.858;2022-09-03T13:30:13;22.90;78.00
16823;DHT22;8528;49.976;11.858;2022-09-03T13:33:05;23.20;76.50
16823;DHT22;8528;49.976;11.858;2022-09-03T13:38:58;23.10;76.80
16823;DHT22;8528;49.976;11.858;2022-09-03T13:41:51;23.30;75.90
16823;DHT22;8528;49.976;11.858;2022-09-03T13:44:43;23.40;74.70
16823;DHT22;8528;49.976;11.858;2022-09-03T13:50:07;23.20;76.10
16823;DHT22;8528;49.976;11.858;2022-09-03T13:53:03;23.40;74.70
16823;DHT22;8528;49.976;11.858;2022-09-03T13:55:55;23.50;76.10
16823;DHT22;8528;49.976;11.858;2022-09-03T14:02:01;23.90;73.50
16823;DHT22;8528;49.976;11.858;2022-09-03T14:07:46;24.50;71.40
16823;DHT22;8528;49.976;11.858;2022-09-03T14:15:30;24.30;70.90
16823;DHT22;8528;49.976;11.858;2022-09-03T14:21:13;24.40;70.20
16823;DHT22;8528;49.976;11.858;2022-09-03T14:23:58;24.50;70.20
16823;DHT22;8528;49.976;11.858;2022-09-03T14:26:30;24.60;68.90
16823;DHT22;8528;49.976;11.858;2022-09-03T14:29:14;24.70;71.10
16823;DHT22;8528;49.976;11.858;2022-09-03T14:55:50;24.20;72.40
16823;DHT22;8528;49.976;11.858;2022-09-03T15:01:33;23.00;77.20
16823;DHT22;8528;49.976;11.858;2022-09-03T15:04:42;22.60;77.80
16823;DHT22;8528;49.976;11.858;2022-09-03T15:09:49;22.20;79.60
16823;DHT22;8528;49.976;11.858;2022-09-03T15:12:39;22.30;80.10
16823;DHT22;8528;49.976;11.858;2022-09-03T15:15:51;22.20;80.70
16823;DHT22;8528;49.976;11.858;2022-09-03T15:18:49;22.10;82.20
16823;DHT22;8528;49.976;11.858;2022-09-03T15:24:57;21.70;83.00
16823;DHT22;8528;49.976;11.858;2022-09-03T15:30:17;21.30;84.70
16823;DHT22;8528;49.976;11.858;2022-09-03T15:41:33;21.20;86.20
16823;DHT22;8528;49.976;11.858;2022-09-03T15:44:06;21.10;86.90
16823;DHT22;8528;49.976;11.858;2022-09-03T15:46:51;21.00;86.80
16823;DHT22;8528;49.976;11.858;2022-09-03T15:55:29;20.80;88.00
16823;DHT22;8528;49.976;11.858;2022-09-03T15:58:25;20.70;87.50
16823;DHT22;8528;49.976;11.858;2022-09-03T16:01:19;20.50;89.50
16823;DHT22;8528;49.976;11.858;2022-09-03T16:07:03;20.20;90.20
16823;DHT22;8528;49.976;11.858;2022-09-03T16:16:07;20.00;90.60
16823;DHT22;8528;49.976;11.858;2022-09-03T16:18:41;19.90;91.30
16823;DHT22;8528;49.976;11.858;2022-09-03T16:35:53;19.70;92.50
16823;DHT22;8528;49.976;11.858;2022-09-03T16:38:51;19.60;92.70
16823;DHT22;8528;49.976;11.858;2022-09-03T16:52:47;19.30;94.20
16823;DHT22;8528;49.976;11.858;2022-09-03T16:55:33;19.20;94.40
16823;DHT22;8528;49.976;11.858;2022-09-03T16:58:24;19.30;94.10
16823;DHT22;8528;49.976;11.858;2022-09-03T17:03:51;19.20;94.80
16823;DHT22;8528;49.976;11.858;2022-09-03T17:20:38;18.70;97.60
16823;DHT22;8528;49.976;11.858;2022-09-03T17:32:02;18.60;98.70
16823;DHT22;8528;49.976;11.858;2022-09-03T17:34:38;18.50;99.90
16823;DHT22;8528;49.976;11.858;2022-09-03T17:50:07;18.10;99.90
16823;DHT22;8528;49.976;11.858;2022-09-03T17:52:52;17.90;99.90
16823;DHT22;8528;49.976;11.858;2022-09-03T17:55:41;17.80;99.90
16823;DHT22;8528;49.976;11.858;2022-09-03T18:01:11;17.60;99.90
16823;DHT22;8528;49.976;11.858;2022-09-03T18:03:59;17.50;99.90
16823;DHT22;8528;49.976;11.858;2022-09-03T18:06:34;17.40;99.90
16823;DHT22;8528;49.976;11.858;2022-09-03T18:09:22;17.40;99.90
16823;DHT22;8528;49.976;11.858;2022-09-03T18:12:08;17.40;99.90
16823;DHT22;8528;49.976;11.858;2022-09-03T18:14:46;17.30;99.90
16823;DHT22;8528;49.976;11.858;2022-09-03T18:17:38;17.30;99.90
16823;DHT22;8528;49.976;11.858;2022-09-03T18:20:09;17.30;99.90
16823;DHT22;8528;49.976;11.858;2022-09-03T18:26:24;17.20;99.90
16823;DHT22;8528;49.976;11.858;2022-09-03T18:30:03;17.10;99.90
16823;DHT22;8528;49.976;11.858;2022-09-03T18:32:31;17.10;99.90
16823;DHT22;8528;49.976;11.858;2022-09-03T18:35:17;17.00;99.90
16823;DHT22;8528;49.976;11.858;2022-09-03T18:38:09;17.00;99.90
16823;DHT22;8528;49.976;11.858;2022-09-03T18:51:13;17.00;99.90
16823;DHT22;8528;49.976;11.858;2022-09-03T19:00:35;17.00;99.90
16823;DHT22;8528;49.976;11.858;2022-09-03T19:10:09;16.90;99.90
16823;DHT22;8528;49.976;11.858;2022-09-03T19:13:33;16.90;99.90
16823;DHT22;8528;49.976;11.858;2022-09-03T19:19:55;16.70;99.90
16823;DHT22;8528;49.976;11.858;2022-09-03T19:22:46;16.70;99.90
16823;DHT22;8528;49.976;11.858;2022-09-03T19:25:32;16.60;99.90
16823;DHT22;8528;49.976;11.858;2022-09-03T19:31:27;16.60;99.90
16823;DHT22;8528;49.976;11.858;2022-09-03T19:34:29;16.60;99.90
16823;DHT22;8528;49.976;11.858;2022-09-03T19:37:29;16.60;99.90
16823;DHT22;8528;49.976;11.858;2022-09-03T19:40:45;16.50;99.90
16823;DHT22;8528;49.976;11.858;2022-09-03T19:46:49;16.40;99.90
16823;DHT22;8528;49.976;11.858;2022-09-03T19:55:34;16.40;99.90
16823;DHT22;8528;49.976;11.858;2022-09-03T19:58:35;16.30;99.90
16823;DHT22;8528;49.976;11.858;2022-09-03T20:01:26;16.30;99.90
16823;DHT22;8528;49.976;11.858;2022-09-03T20:04:14;16.30;99.90
16823;DHT22;8528;49.976;11.858;2022-09-03T20:07:02;16.20;99.90
16823;DHT22;8528;49.976;11.858;2022-09-03T20:09:53;16.20;99.90
16823;DHT22;8528;49.976;11.858;2022-09-03T20:12:44;16.10;99.90
16823;DHT22;8528;49.976;11.858;2022-09-03T20:15:15;16.10;99.90
16823;DHT22;8528;49.976;11.858;2022-09-03T20:18:09;16.00;99.90
16823;DHT22;8528;49.976;11.858;2022-09-03T20:27:00;16.00;99.90
16823;DHT22;8528;49.976;11.858;2022-09-03T20:35:37;15.80;99.90
16823;DHT22;8528;49.976;11.858;2022-09-03T20:38:38;15.80;99.90
16823;DHT22;8528;49.976;11.858;2022-09-03T20:44:58;15.60;99.90
16823;DHT22;8528;49.976;11.858;2022-09-03T20:53:49;15.40;99.90
16823;DHT22;8528;49.976;11.858;2022-09-03T20:59:08;15.40;99.90
16823;DHT22;8528;49.976;11.858;2022-09-03T21:07:21;15.40;99.90
16823;DHT22;8528;49.976;11.858;2022-09-03T21:12:50;15.40;99.90
16823;DHT22;8528;49.976;11.858;2022-09-03T21:15:39;15.30;99.90
16823;DHT22;8528;49.976;11.858;2022-09-03T21:18:34;15.40;99.90
16823;DHT22;8528;49.976;11.858;2022-09-03T21:21:08;15.30;99.90
16823;DHT22;8528;49.976;11.858;2022-09-03T21:26:37;15.30;99.90
16823;DHT22;8528;49.976;11.858;2022-09-03T21:35:34;15.20;99.90
16823;DHT22;8528;49.976;11.858;2022-09-03T21:38:24;15.20;99.90
16823;DHT22;8528;49.976;11.858;2022-09-03T21:41:01;15.20;99.90
16823;DHT22;8528;49.976;11.858;2022-09-03T21:43:34;15.10;99.90
16823;DHT22;8528;49.976;11.858;2022-09-03T21:46:07;15.10;99.90
16823;DHT22;8528;49.976;11.858;2022-09-03T21:49:02;15.10;99.90
16823;DHT22;8528;49.976;11.858;2022-09-03T21:51:41;15.10;99.90
16823;DHT22;8528;49.976;11.858;2022-09-03T22:04:51;14.90;99.90
16823;DHT22;8528;49.976;11.858;2022-09-03T22:07:47;14.80;99.90
16823;DHT22;8528;49.976;11.858;2022-09-03T22:13:48;14.60;99.90
16823;DHT22;8528;49.976;11.858;2022-09-03T22:19:00;14.40;99.90
16823;DHT22;8528;49.976;11.858;2022-09-03T22:21:35;14.30;99.90
16823;DHT22;8528;49.976;11.858;2022-09-03T22:30:05;14.00;99.90
16823;DHT22;8528;49.976;11.858;2022-09-03T22:36:08;13.90;99.90
16823;DHT22;8528;49.976;11.858;2022-09-03T22:39:00;13.80;99.90
16823;DHT22;8528;49.976;11.858;2022-09-03T22:52:31;13.20;99.90
16823;DHT22;8528;49.976;11.858;2022-09-03T22:55:13;13.10;99.90
16823;DHT22;8528;49.976;11.858;2022-09-03T22:58:05;13.00;99.90
16823;DHT22;8528;49.976;11.858;2022-09-03T23:00:56;13.00;99.90
16823;DHT22;8528;49.976;11.858;2022-09-03T23:03:36;12.90;99.90
16823;DHT22;8528;49.976;11.858;2022-09-03T23:06:16;12.80;99.90
16823;DHT22;8528;49.976;11.858;2022-09-03T23:08:55;12.70;99.90
16823;DHT22;8528;49.976;11.858;2022-09-03T23:11:30;12.60;99.90
16823;DHT22;8528;49.976;11.858;2022-09-03T23:14:23;12.60;99.90
16823;DHT22;8528;49.976;11.858;2022-09-03T23:16:57;12.50;99.90
16823;DHT22;8528;49.976;11.858;2022-09-03T23:19:39;12.40;99.90
16823;DHT22;8528;49.976;11.858;2022-09-03T23:22:24;12.40;99.90
16823;DHT22;8528;49.976;11.858;2022-09-03T23:24:57;12.30;99.90